Time;durP1;ratioP1;P1;durP2;ratioP2;P2;SDS_P1;SDS_P2;PMS_P1;PMS_P2;Temp;Humidity;BMP_temperature;BMP_pressure;BME280_temperature;BME280_humidity;BME280_pressure;Samples;Min_cycle;Max_cycle;Signal;HPM_P1;HPM_P2
2021/12/11 00:00:22;;;;;;;64.70;21.65;;;2.40;78.40;;;;;;4163769;28;20514;-66
2021/12/11 00:02:27;;;;;;;55.63;20.70;;;2.40;78.40;;;;;;4165016;28;20033;-66
2021/12/11 00:04:33;;;;;;;58.47;21.20;;;2.40;78.40;;;;;;4162242;28;20029;-66
2021/12/11 00:06:40;;;;;;;58.28;22.17;;;2.40;78.40;;;;;;4164978;28;20056;-65
2021/12/11 00:08:41;;;;;;;56.30;20.85;;;2.40;78.40;;;;;;4167516;28;20119;-66
2021/12/11 00:10:44;;;;;;;61.15;21.45;;;2.40;78.40;;;;;;4167437;28;20108;-66
2021/12/11 00:12:50;;;;;;;62.17;22.35;;;2.40;78.40;;;;;;4168637;28;20463;-65
2021/12/11 00:14:54;;;;;;;58.80;21.25;;;2.40;78.40;;;;;;4168909;28;20032;-64
2021/12/11 00:16:55;;;;;;;58.72;20.38;;;2.40;78.30;;;;;;4169079;28;20037;-65
2021/12/11 00:19:02;;;;;;;58.47;21.38;;;2.50;78.30;;;;;;4164092;28;20448;-65
2021/12/11 00:21:08;;;;;;;68.78;23.27;;;2.50;78.30;;;;;;4181539;28;20029;-66
2021/12/11 00:23:08;;;;;;;64.00;22.65;;;2.50;78.30;;;;;;4173275;28;20045;-66
2021/12/11 00:25:09;;;;;;;61.03;21.70;;;2.50;78.20;;;;;;4172156;28;20523;-66
2021/12/11 00:27:12;;;;;;;54.85;20.50;;;2.50;78.20;;;;;;4168550;28;20030;-66
2021/12/11 00:29:13;;;;;;;62.30;22.65;;;2.50;78.20;;;;;;4168117;28;20401;-66
2021/12/11 00:31:14;;;;;;;58.20;22.23;;;2.50;78.20;;;;;;4171174;28;20032;-65
2021/12/11 00:33:18;;;;;;;58.03;21.10;;;2.50;78.10;;;;;;4168186;28;20116;-66
2021/12/11 00:35:20;;;;;;;56.35;19.42;;;2.50;78.10;;;;;;4166152;28;20453;-65
2021/12/11 00:37:23;;;;;;;61.67;20.95;;;2.50;78.00;;;;;;4164824;28;20247;-66
2021/12/11 00:39:24;;;;;;;57.90;22.00;;;2.50;77.90;;;;;;4168350;28;20450;-65
2021/12/11 00:41:25;;;;;;;61.95;21.60;;;2.40;77.90;;;;;;4169978;28;20178;-66
2021/12/11 00:43:29;;;;;;;60.17;23.25;;;2.40;77.80;;;;;;4168726;28;20033;-66
2021/12/11 00:45:33;;;;;;;62.47;21.83;;;2.40;77.80;;;;;;4164478;28;20029;-66
2021/12/11 00:47:34;;;;;;;58.17;21.67;;;2.40;77.80;;;;;;4175197;28;20029;-66
2021/12/11 00:49:35;;;;;;;56.22;20.58;;;2.40;77.80;;;;;;4169743;28;20435;-66
2021/12/11 00:51:35;;;;;;;54.47;20.75;;;2.40;77.80;;;;;;4164689;28;20045;-66
2021/12/11 00:53:54;;;;;;;55.58;20.85;;;2.40;77.90;;;;;;4170380;28;21767;-65
2021/12/11 00:55:59;;;;;;;57.88;21.25;;;2.40;77.90;;;;;;4170733;28;20022;-65
2021/12/11 00:58:15;;;;;;;57.85;20.10;;;2.40;77.90;;;;;;4175792;28;20020;-65
2021/12/11 01:00:21;;;;;;;52.63;19.42;;;2.40;77.90;;;;;;4165025;28;20457;-66
2021/12/11 01:02:23;;;;;;;53.13;20.13;;;2.40;77.80;;;;;;4166737;28;20105;-66
2021/12/11 01:04:30;;;;;;;53.10;20.42;;;2.40;77.80;;;;;;4169742;28;20033;-65
2021/12/11 01:06:31;;;;;;;53.75;20.10;;;2.40;77.70;;;;;;4170112;28;20102;-66
2021/12/11 01:08:41;;;;;;;52.05;20.20;;;2.30;77.60;;;;;;4171467;28;20033;-66
2021/12/11 01:10:42;;;;;;;54.05;20.05;;;2.40;77.50;;;;;;4165340;28;20524;-67
2021/12/11 01:12:50;;;;;;;55.10;20.75;;;2.30;77.50;;;;;;4168836;28;20036;-66
2021/12/11 01:14:55;;;;;;;53.97;19.55;;;2.30;77.50;;;;;;4167350;28;20581;-67
2021/12/11 01:17:04;;;;;;;54.67;20.95;;;2.30;77.50;;;;;;4163350;28;20075;-66
2021/12/11 01:19:05;;;;;;;62.35;21.38;;;2.30;77.50;;;;;;4170389;28;20025;-66
2021/12/11 01:21:28;;;;;;;56.08;20.92;;;2.30;77.50;;;;;;4167128;28;20104;-66
2021/12/11 01:25:33;;;;;;;57.50;21.17;;;2.30;77.60;;;;;;4168181;28;20029;-65
2021/12/11 01:27:33;;;;;;;53.67;20.63;;;2.30;77.60;;;;;;4168349;28;20516;-66
2021/12/11 01:29:34;;;;;;;60.22;22.15;;;2.30;77.60;;;;;;4161089;28;20041;-66
2021/12/11 01:31:35;;;;;;;62.75;19.92;;;2.30;77.70;;;;;;4173016;28;20032;-66
2021/12/11 01:33:36;;;;;;;57.90;21.45;;;2.30;77.70;;;;;;4175506;28;20480;-66
2021/12/11 01:35:36;;;;;;;60.00;20.70;;;2.30;77.80;;;;;;4164596;28;20516;-66
2021/12/11 01:37:37;;;;;;;58.55;21.65;;;2.30;77.80;;;;;;4167329;28;20063;-67
2021/12/11 01:39:39;;;;;;;60.05;21.50;;;2.30;77.80;;;;;;4163240;28;20404;-65
2021/12/11 01:41:40;;;;;;;61.92;22.67;;;2.30;77.90;;;;;;4165374;28;20028;-66
2021/12/11 01:43:41;;;;;;;55.88;21.70;;;2.30;77.80;;;;;;4187528;28;20048;-66
2021/12/11 01:45:45;;;;;;;62.17;22.95;;;2.30;77.80;;;;;;4173831;28;20032;-66
2021/12/11 01:47:46;;;;;;;58.78;22.80;;;2.20;77.80;;;;;;4168256;28;20594;-66
2021/12/11 01:49:50;;;;;;;60.17;22.30;;;2.20;77.80;;;;;;4163043;28;20044;-66
2021/12/11 01:51:52;;;;;;;;;;;2.20;77.80;;;;;;4165624;28;20047;-66
2021/12/11 01:54:19;;;;;;;60.45;22.17;;;2.20;78.00;;;;;;4161849;28;20007;-66
2021/12/11 01:56:21;;;;;;;59.88;21.15;;;2.20;78.00;;;;;;4166812;28;20024;-66
2021/12/11 01:58:29;;;;;;;61.88;23.30;;;2.20;78.00;;;;;;4161714;28;20393;-65
2021/12/11 02:00:33;;;;;;;66.85;22.25;;;2.20;78.10;;;;;;4167118;28;20516;-66
2021/12/11 02:02:41;;;;;;;66.70;22.65;;;2.20;78.10;;;;;;4168953;28;20044;-66
2021/12/11 02:04:49;;;;;;;63.15;23.00;;;2.20;78.20;;;;;;4166101;28;20025;-65
2021/12/11 02:06:50;;;;;;;66.75;24.02;;;2.20;78.30;;;;;;4167163;28;20167;-65
2021/12/11 02:08:51;;;;;;;65.97;23.17;;;2.20;78.40;;;;;;4183940;23;20495;-79
2021/12/11 02:10:53;;;;;;;68.40;24.45;;;2.20;78.40;;;;;;4126454;28;20034;-78
2021/12/11 02:12:56;;;;;;;63.25;24.33;;;2.20;78.50;;;;;;4137255;28;20454;-78
2021/12/11 02:14:58;;;;;;;64.95;23.98;;;2.10;79.20;;;;;;4128502;28;20039;-78
2021/12/11 02:17:01;;;;;;;63.80;23.90;;;2.20;78.60;;;;;;4108910;28;20035;-78
2021/12/11 02:19:07;;;;;;;62.88;23.90;;;2.20;78.60;;;;;;4109582;28;20077;-79
2021/12/11 02:21:10;;;;;;;74.80;24.35;;;2.10;78.50;;;;;;4122100;28;20038;-79
2021/12/11 02:23:13;;;;;;;64.32;22.98;;;2.10;79.30;;;;;;4112718;28;20554;-79
2021/12/11 02:25:27;;;;;;;60.85;23.23;;;2.10;78.60;;;;;;4128175;28;20081;-79
2021/12/11 02:27:32;;;;;;;62.70;22.80;;;2.10;78.60;;;;;;4116145;28;20121;-78
2021/12/11 02:29:36;;;;;;;63.90;22.88;;;2.10;78.60;;;;;;4128306;28;20054;-79
2021/12/11 02:31:48;;;;;;;63.38;22.25;;;2.10;78.60;;;;;;4145710;28;20061;-78
2021/12/11 02:33:57;;;;;;;62.53;23.13;;;2.10;78.50;;;;;;4128122;28;20092;-78
2021/12/11 02:36:10;;;;;;;64.35;22.83;;;2.10;78.50;;;;;;4112171;28;20030;-78
2021/12/11 02:38:23;;;;;;;64.30;22.80;;;2.10;78.50;;;;;;4142551;28;20680;-77
2021/12/11 02:40:30;;;;;;;68.40;23.38;;;2.10;78.30;;;;;;4143286;28;20412;-78
2021/12/11 02:42:36;;;;;;;62.38;22.77;;;2.10;78.30;;;;;;4144749;28;20030;-78
2021/12/11 02:44:39;;;;;;;68.28;24.73;;;2.10;78.10;;;;;;4117206;28;20495;-78
2021/12/11 02:47:09;;;;;;;;;;;2.00;78.00;;;;;;4147605;28;20038;-78
2021/12/11 02:49:16;;;;;;;71.72;23.98;;;2.00;78.00;;;;;;4109566;28;19965;-77
2021/12/11 02:51:22;;;;;;;75.28;24.08;;;2.00;77.90;;;;;;4114773;28;20034;-78
2021/12/11 02:53:52;;;;;;;74.07;26.25;;;2.00;77.80;;;;;;4128150;28;20030;-78
2021/12/11 02:56:06;;;;;;;65.10;22.95;;;1.90;77.80;;;;;;4127453;28;20038;-77
2021/12/11 02:58:17;;;;;;;60.70;22.42;;;1.80;77.70;;;;;;4109692;28;20026;-78
2021/12/11 03:00:21;;;;;;;64.78;22.88;;;1.80;77.80;;;;;;4132162;28;20355;-77
2021/12/11 03:02:26;;;;;;;65.15;22.83;;;1.80;77.80;;;;;;4081534;29;20020;-78
2021/12/11 03:04:35;;;;;;;71.75;24.05;;;1.70;77.80;;;;;;4129897;28;20042;-78
2021/12/11 03:06:42;;;;;;;68.05;23.67;;;1.70;78.10;;;;;;4114548;28;20042;-78
2021/12/11 03:08:43;;;;;;;68.03;22.90;;;1.70;77.80;;;;;;4132291;28;20034;-78
2021/12/11 03:10:57;;;;;;;60.78;21.95;;;1.60;77.70;;;;;;4112998;28;20061;-78
2021/12/11 03:12:58;;;;;;;66.72;22.63;;;1.60;77.70;;;;;;4117863;28;20516;-78
2021/12/11 03:14:59;;;;;;;68.03;23.30;;;1.60;77.80;;;;;;4129434;28;20025;-77
2021/12/11 03:16:59;;;;;;;59.70;21.65;;;1.60;77.80;;;;;;4136260;28;20026;-77
2021/12/11 03:19:00;;;;;;;61.05;21.63;;;1.50;77.80;;;;;;4114308;28;20532;-77
2021/12/11 03:21:01;;;;;;;72.20;21.60;;;1.50;77.80;;;;;;4126365;28;20038;-77
2021/12/11 03:23:02;;;;;;;68.55;23.80;;;1.50;77.80;;;;;;4118095;28;20078;-77
2021/12/11 03:25:07;;;;;;;71.63;23.45;;;1.50;77.80;;;;;;4100777;28;20528;-77
2021/12/11 03:27:08;;;;;;;58.05;21.88;;;1.50;77.80;;;;;;4117165;28;20030;-78
2021/12/11 03:29:10;;;;;;;61.60;22.17;;;1.50;77.80;;;;;;4130940;28;20034;-78
2021/12/11 03:31:11;;;;;;;61.40;21.63;;;1.40;77.80;;;;;;4129263;28;20574;-78
2021/12/11 03:33:14;;;;;;;67.82;22.30;;;1.40;77.80;;;;;;4134141;28;20358;-78
2021/12/11 03:35:15;;;;;;;64.82;22.08;;;1.40;77.80;;;;;;4100847;28;20037;-77
2021/12/11 03:37:16;;;;;;;61.35;20.92;;;1.40;77.80;;;;;;4140042;28;20543;-78
2021/12/11 03:39:25;;;;;;;66.32;21.30;;;1.40;77.80;;;;;;4131902;28;20516;-78
2021/12/11 03:41:26;;;;;;;53.10;19.02;;;1.40;77.80;;;;;;4128189;28;20256;-78
2021/12/11 03:43:27;;;;;;;50.47;19.20;;;1.40;77.80;;;;;;4103050;28;20031;-78
2021/12/11 03:45:30;;;;;;;56.33;18.83;;;1.50;77.90;;;;;;4130954;28;20026;-78
2021/12/11 03:47:34;;;;;;;55.17;18.92;;;1.50;78.70;;;;;;4116291;28;20532;-78
2021/12/11 03:49:34;;;;;;;52.40;20.65;;;1.50;77.90;;;;;;4113917;28;20031;-79
2021/12/11 03:51:37;;;;;;;62.22;22.55;;;1.50;78.00;;;;;;4127951;28;20041;-78
2021/12/11 03:53:37;;;;;;;51.75;18.52;;;1.60;78.00;;;;;;4114908;28;20034;-79
2021/12/11 03:55:41;;;;;;;55.25;19.95;;;1.50;77.80;;;;;;4131338;28;20025;-78
2021/12/11 03:57:44;;;;;;;54.30;19.80;;;1.50;77.80;;;;;;4132012;28;20508;-79
2021/12/11 03:59:47;;;;;;;58.03;21.60;;;1.60;78.50;;;;;;4115433;28;20078;-79
2021/12/11 04:01:52;;;;;;;62.35;20.40;;;1.60;77.70;;;;;;4115372;28;20035;-78
2021/12/11 04:03:58;;;;;;;56.33;20.70;;;1.60;77.70;;;;;;4121873;28;20486;-79
2021/12/11 04:05:59;;;;;;;60.58;20.73;;;1.50;77.60;;;;;;4132444;28;20036;-78
2021/12/11 04:08:01;;;;;;;56.08;21.63;;;1.60;77.80;;;;;;4130643;28;20105;-78
2021/12/11 04:10:02;;;;;;;66.65;21.50;;;1.60;77.70;;;;;;4129667;28;20093;-78
2021/12/11 04:12:04;;;;;;;57.50;21.60;;;1.60;77.80;;;;;;4116990;28;20027;-78
2021/12/11 04:14:08;;;;;;;60.13;22.13;;;1.60;77.80;;;;;;4146924;28;20025;-77
2021/12/11 04:16:09;;;;;;;64.28;22.67;;;1.60;77.80;;;;;;4130235;28;20026;-77
2021/12/11 04:18:10;;;;;;;55.35;21.15;;;1.60;77.80;;;;;;4127465;28;20032;-78
2021/12/11 04:20:14;;;;;;;53.78;20.60;;;1.60;77.80;;;;;;4128289;28;20022;-78
2021/12/11 04:22:14;;;;;;;62.47;21.60;;;1.50;77.80;;;;;;4131087;28;20416;-77
2021/12/11 04:24:18;;;;;;;53.13;19.50;;;1.60;77.90;;;;;;4128390;28;20034;-78
2021/12/11 04:26:18;;;;;;;65.35;21.45;;;1.60;77.80;;;;;;4132374;28;20026;-77
2021/12/11 04:28:21;;;;;;;59.55;20.58;;;1.60;77.90;;;;;;4126766;28;20039;-78
2021/12/11 04:30:21;;;;;;;59.47;21.75;;;1.60;77.90;;;;;;4111547;28;20130;-78
2021/12/11 04:32:23;;;;;;;55.28;20.42;;;1.60;77.90;;;;;;4125058;28;20605;-77
2021/12/11 04:34:24;;;;;;;53.25;20.50;;;1.50;77.80;;;;;;4112057;28;20603;-77
2021/12/11 04:36:30;;;;;;;67.07;22.55;;;1.50;78.60;;;;;;4143444;28;20365;-77
2021/12/11 04:38:31;;;;;;;56.85;19.73;;;1.60;77.90;;;;;;4147026;28;20029;-77
2021/12/11 04:40:35;;;;;;;60.67;21.42;;;1.60;78.60;;;;;;4125790;28;20040;-77
2021/12/11 04:42:54;;;;;;;62.58;22.13;;;1.60;77.90;;;;;;4128193;28;20066;-77
2021/12/11 04:44:55;;;;;;;63.30;22.45;;;1.60;77.80;;;;;;4114060;28;20056;-77
2021/12/11 04:46:56;;;;;;;53.20;20.35;;;1.60;78.60;;;;;;4117291;28;20090;-78
2021/12/11 04:49:08;;;;;;;60.15;21.42;;;1.60;77.80;;;;;;4127905;28;20034;-78
2021/12/11 04:53:27;;;;;;;57.40;20.30;;;1.60;77.80;;;;;;4127742;28;20022;-78
2021/12/11 05:08:59;;;;;;;56.85;19.95;;;1.60;77.70;;;;;;4137377;28;20420;-78
2021/12/11 05:10:23;;;;;;;61.15;21.65;;;1.50;77.50;;;;;;4120023;28;20046;-79
2021/12/11 05:12:36;;;;;;;59.00;20.40;;;1.60;77.60;;;;;;4146788;28;20028;-78
2021/12/11 05:14:37;;;;;;;50.13;18.83;;;1.50;77.50;;;;;;4150645;28;20026;-78
2021/12/11 05:16:38;;;;;;;54.95;19.23;;;1.60;78.30;;;;;;4149053;28;20327;-78
2021/12/11 05:18:41;;;;;;;60.22;19.95;;;1.60;77.60;;;;;;4121184;28;20068;-78
2021/12/11 05:20:44;;;;;;;55.72;20.17;;;1.60;77.60;;;;;;4126101;28;20587;-78
2021/12/11 05:22:44;;;;;;;55.05;19.92;;;1.60;77.70;;;;;;4146682;28;20041;-78
2021/12/11 05:24:48;;;;;;;52.90;19.10;;;1.60;77.70;;;;;;4113307;28;20105;-79
2021/12/11 05:26:48;;;;;;;52.33;19.80;;;1.70;77.70;;;;;;4113701;28;20496;-79
2021/12/11 05:28:49;;;;;;;56.13;19.73;;;1.60;77.60;;;;;;4111904;28;20023;-78
2021/12/11 05:30:51;;;;;;;53.75;18.70;;;1.70;77.60;;;;;;4106813;28;20050;-79
2021/12/11 05:32:51;;;;;;;51.00;19.30;;;1.70;77.50;;;;;;4116394;28;20026;-79
2021/12/11 05:34:52;;;;;;;56.17;20.38;;;1.70;78.10;;;;;;4115070;28;20059;-79
2021/12/11 05:36:53;;;;;;;61.47;20.08;;;1.80;77.30;;;;;;4125004;28;20030;-79
2021/12/11 05:38:53;;;;;;;60.72;19.33;;;1.70;77.10;;;;;;4134591;28;20530;-79
2021/12/11 05:40:57;;;;;;;54.22;19.58;;;1.70;77.00;;;;;;4129004;28;20042;-79
2021/12/11 05:42:57;;;;;;;;;;;1.70;77.10;;;;;;4128252;28;20034;-80
2021/12/11 05:44:58;;;;;;;49.95;19.38;;;1.70;77.10;;;;;;4132225;28;20296;-79
2021/12/11 05:46:58;;;;;;;57.05;20.05;;;1.80;77.00;;;;;;4131263;28;20115;-80
2021/12/11 05:48:59;;;;;;;63.13;20.05;;;1.70;76.90;;;;;;4129170;28;20101;-80
2021/12/11 05:51:01;;;;;;;58.75;20.70;;;1.70;76.90;;;;;;4132360;28;20037;-79
2021/12/11 05:53:02;;;;;;;49.60;18.88;;;1.70;77.00;;;;;;4125497;28;20023;-79
2021/12/11 05:55:05;;;;;;;54.15;19.63;;;1.70;77.00;;;;;;4127170;28;20037;-78
2021/12/11 05:57:09;;;;;;;55.53;19.27;;;1.70;77.10;;;;;;4110497;28;20628;-78
2021/12/11 05:59:12;;;;;;;55.45;19.50;;;1.70;77.10;;;;;;4109262;28;20472;-78
2021/12/11 06:01:15;;;;;;;54.10;19.23;;;1.70;77.10;;;;;;4112220;28;20030;-77
2021/12/11 06:03:16;;;;;;;;;;;1.70;77.10;;;;;;4122903;28;20538;-77
2021/12/11 06:05:16;;;;;;;47.78;19.05;;;1.70;77.20;;;;;;4144959;28;19909;-78
2021/12/11 06:07:17;;;;;;;52.90;17.80;;;1.70;77.10;;;;;;4130826;28;20042;-78
2021/12/11 06:09:19;;;;;;;48.15;18.90;;;1.70;77.00;;;;;;4114194;28;20433;-79
2021/12/11 06:11:20;;;;;;;54.30;18.73;;;1.70;77.00;;;;;;4122771;28;20023;-79
2021/12/11 06:13:21;;;;;;;54.03;19.35;;;1.70;76.90;;;;;;4126824;28;20025;-78
2021/12/11 06:15:22;;;;;;;45.22;17.35;;;1.60;76.80;;;;;;4094876;28;20525;-79
2021/12/11 06:17:24;;;;;;;45.97;17.45;;;1.60;76.80;;;;;;4094079;28;20030;-78
2021/12/11 06:19:27;;;;;;;54.42;19.67;;;1.60;77.30;;;;;;4129291;28;20057;-80
2021/12/11 06:21:27;;;;;;;49.27;17.40;;;1.60;76.50;;;;;;4126469;28;20042;-79
2021/12/11 06:23:28;;;;;;;51.15;17.67;;;1.50;76.30;;;;;;4117278;28;20042;-78
2021/12/11 06:25:30;;;;;;;51.42;17.77;;;1.60;76.20;;;;;;4112972;28;20515;-79
2021/12/11 06:27:31;;;;;;;48.70;17.20;;;1.50;76.00;;;;;;4117901;28;20039;-79
2021/12/11 06:29:31;;;;;;;48.65;15.82;;;1.50;75.70;;;;;;4127781;28;20232;-79
2021/12/11 06:31:32;;;;;;;46.67;15.80;;;1.40;75.50;;;;;;4130922;28;20038;-79
2021/12/11 06:33:33;;;;;;;41.88;16.45;;;1.30;76.10;;;;;;4127625;28;20037;-78
2021/12/11 06:35:42;;;;;;;45.72;16.42;;;1.30;75.20;;;;;;4129172;28;20065;-78
2021/12/11 06:37:42;;;;;;;50.15;16.67;;;1.20;75.00;;;;;;4130794;28;20052;-79
2021/12/11 06:39:43;;;;;;;51.10;17.27;;;1.20;74.90;;;;;;4127011;28;20030;-78
2021/12/11 06:41:46;;;;;;;54.00;16.63;;;1.10;74.80;;;;;;4128181;28;20069;-78
2021/12/11 06:43:47;;;;;;;42.20;15.48;;;1.00;74.70;;;;;;4130657;28;20030;-77
2021/12/11 06:45:48;;;;;;;43.47;15.15;;;1.00;74.70;;;;;;4099570;28;20027;-77
2021/12/11 06:47:48;;;;;;;48.58;16.40;;;0.90;75.30;;;;;;4130824;28;20539;-78
2021/12/11 06:49:49;;;;;;;36.38;13.90;;;0.90;74.70;;;;;;4130461;28;20113;-78
2021/12/11 06:51:50;;;;;;;42.70;14.85;;;0.80;74.60;;;;;;4093286;28;20038;-78
2021/12/11 06:53:53;;;;;;;42.10;15.43;;;0.70;74.70;;;;;;4096246;28;20034;-79
2021/12/11 06:55:54;;;;;;;;;;;0.70;74.70;;;;;;4114573;28;20027;-79
2021/12/11 06:57:54;;;;;;;58.13;19.27;;;0.60;74.90;;;;;;4133628;28;19968;-79
2021/12/11 06:59:55;;;;;;;49.67;17.10;;;0.60;75.00;;;;;;4128460;28;20030;-77
2021/12/11 07:01:56;;;;;;;51.05;18.65;;;0.60;75.20;;;;;;4126605;28;20054;-78
2021/12/11 07:03:57;;;;;;;51.65;19.58;;;0.50;75.50;;;;;;4125582;28;20125;-78
2021/12/11 07:05:58;;;;;;;63.13;19.77;;;0.50;75.80;;;;;;4128064;28;20085;-78
2021/12/11 07:07:59;;;;;;;54.47;19.70;;;0.50;76.20;;;;;;4128404;28;20038;-80
2021/12/11 07:10:01;;;;;;;52.35;17.65;;;0.50;76.50;;;;;;4097953;28;20038;-77
2021/12/11 07:12:02;;;;;;;54.15;18.85;;;0.60;76.90;;;;;;4126616;28;20033;-77
2021/12/11 07:14:02;;;;;;;53.40;19.60;;;0.50;77.10;;;;;;4124418;28;20034;-77
2021/12/11 07:16:03;;;;;;;47.83;17.92;;;0.50;78.00;;;;;;4103753;28;20055;-77
2021/12/11 07:18:04;;;;;;;54.33;17.38;;;0.50;77.50;;;;;;4117804;28;20051;-75
2021/12/11 07:20:07;;;;;;;44.17;16.80;;;0.50;77.60;;;;;;4142814;28;20118;-76
2021/12/11 07:22:08;;;;;;;53.25;18.60;;;0.60;77.80;;;;;;4138830;28;20529;-75
2021/12/11 07:24:10;;;;;;;47.08;17.13;;;0.60;78.00;;;;;;4124564;28;20040;-78
2021/12/11 07:26:16;;;;;;;53.50;18.53;;;0.70;78.10;;;;;;4128043;28;20042;-77
2021/12/11 07:28:16;;;;;;;49.70;18.30;;;0.70;78.20;;;;;;4126588;28;20400;-76
2021/12/11 07:30:17;;;;;;;55.83;18.23;;;0.70;78.20;;;;;;4112986;28;20062;-78
2021/12/11 07:32:18;;;;;;;47.58;17.83;;;0.80;78.30;;;;;;4129682;28;20022;-78
2021/12/11 07:34:19;;;;;;;50.88;16.50;;;0.80;78.20;;;;;;4111530;28;20038;-79
2021/12/11 07:36:20;;;;;;;43.05;16.23;;;0.80;78.30;;;;;;4124774;28;20019;-78
2021/12/11 07:38:20;;;;;;;42.13;16.00;;;0.90;78.30;;;;;;4113028;28;20428;-78
2021/12/11 07:40:23;;;;;;;43.33;17.10;;;0.90;78.30;;;;;;4136794;28;20596;-78
2021/12/11 07:42:24;;;;;;;50.03;17.80;;;1.00;78.30;;;;;;4138364;28;20042;-79
2021/12/11 07:44:25;;;;;;;44.10;15.90;;;1.00;78.30;;;;;;4127189;28;20058;-78
2021/12/11 07:46:27;;;;;;;47.85;17.35;;;1.00;78.30;;;;;;4124627;28;20023;-79
2021/12/11 07:48:27;;;;;;;49.30;16.80;;;1.10;78.20;;;;;;4123566;28;20439;-78
2021/12/11 07:50:28;;;;;;;48.55;18.58;;;1.10;78.20;;;;;;4124555;28;20041;-78
2021/12/11 07:52:29;;;;;;;52.90;17.23;;;1.20;78.30;;;;;;4110618;28;20062;-78
2021/12/11 07:54:30;;;;;;;47.53;17.38;;;1.10;78.30;;;;;;4091124;28;20288;-79
2021/12/11 07:56:30;;;;;;;48.70;18.05;;;1.20;78.30;;;;;;4123809;28;20022;-78
2021/12/11 07:58:33;;;;;;;50.97;17.27;;;1.20;78.30;;;;;;4108084;28;20066;-79
2021/12/11 08:00:36;;;;;;;52.05;18.17;;;1.20;78.30;;;;;;4123111;28;20484;-79
2021/12/11 08:02:38;;;;;;;55.70;20.75;;;1.30;78.30;;;;;;4105803;28;20127;-79
2021/12/11 08:04:38;;;;;;;54.92;19.67;;;1.20;78.20;;;;;;4122050;28;20758;-78
2021/12/11 08:06:40;;;;;;;61.92;20.63;;;1.30;79.10;;;;;;4127216;28;20842;-79
2021/12/11 08:08:41;;;;;;;48.25;18.50;;;1.30;78.40;;;;;;4123100;28;20311;-79
2021/12/11 08:10:45;;;;;;;54.22;18.17;;;1.30;78.50;;;;;;4122665;28;20144;-79
2021/12/11 08:12:46;;;;;;;55.33;19.02;;;1.30;78.50;;;;;;4135608;28;20065;-79
2021/12/11 08:14:46;;;;;;;51.10;18.90;;;1.40;78.70;;;;;;4120229;28;20053;-79
2021/12/11 08:16:49;;;;;;;53.90;18.92;;;1.40;78.80;;;;;;4129950;28;20026;-78
2021/12/11 08:18:50;;;;;;;60.17;19.75;;;1.40;78.80;;;;;;4096164;28;20028;-79
2021/12/11 08:20:51;;;;;;;57.47;19.63;;;1.40;78.90;;;;;;4113538;28;20038;-78
2021/12/11 08:22:52;;;;;;;59.13;20.08;;;1.40;78.90;;;;;;4143220;28;20030;-80
2021/12/11 08:24:53;;;;;;;50.33;18.48;;;1.50;79.00;;;;;;4112158;28;20061;-80
2021/12/11 08:26:55;;;;;;;55.78;19.73;;;1.50;79.10;;;;;;4108552;28;20337;-79
2021/12/11 08:28:56;;;;;;;50.40;18.55;;;1.50;79.70;;;;;;4131170;28;20060;-78
2021/12/11 08:30:57;;;;;;;50.97;18.55;;;1.60;79.10;;;;;;4129018;28;20384;-76
2021/12/11 08:32:58;;;;;;;54.55;20.10;;;1.60;79.10;;;;;;4114121;28;20027;-79
2021/12/11 08:34:58;;;;;;;52.60;19.27;;;1.70;79.10;;;;;;4112248;28;20034;-78
2021/12/11 08:37:00;;;;;;;56.83;20.25;;;1.70;79.20;;;;;;4114126;28;20054;-78
2021/12/11 08:39:00;;;;;;;47.42;18.35;;;1.70;79.10;;;;;;4087466;28;20683;-79
2021/12/11 08:41:02;;;;;;;52.78;19.08;;;1.80;79.10;;;;;;4142956;28;20049;-79
2021/12/11 08:43:04;;;;;;;48.80;18.52;;;1.70;78.90;;;;;;4139852;28;20156;-79
2021/12/11 08:45:09;;;;;;;51.50;18.00;;;1.80;78.90;;;;;;4123664;28;20034;-76
2021/12/11 08:47:10;;;;;;;51.20;19.20;;;1.80;78.90;;;;;;4126099;28;20037;-79
2021/12/11 08:49:18;;;;;;;53.55;19.35;;;1.80;78.80;;;;;;4123149;28;20064;-79
2021/12/11 08:51:41;;;;;;;51.72;19.73;;;1.80;78.80;;;;;;4107885;28;20031;-78
2021/12/11 08:53:42;;;;;;;59.05;19.38;;;1.90;78.80;;;;;;4124951;28;20547;-78
2021/12/11 08:55:46;;;;;;;58.55;21.25;;;1.90;78.80;;;;;;4124943;28;20540;-77
2021/12/11 08:57:46;;;;;;;50.95;18.08;;;1.90;78.80;;;;;;4110546;28;20022;-77
2021/12/11 08:59:49;;;;;;;56.10;20.05;;;2.00;78.90;;;;;;4109531;28;20027;-77
2021/12/11 09:02:00;;;;;;;59.90;20.95;;;1.90;78.90;;;;;;4133017;28;20441;-77
2021/12/11 09:04:12;;;;;;;49.13;18.35;;;1.90;78.90;;;;;;4128312;28;20105;-78
2021/12/11 09:06:27;;;;;;;53.92;19.50;;;2.00;79.00;;;;;;4125486;28;20101;-78
2021/12/11 09:08:38;;;;;;;48.60;19.13;;;2.00;79.10;;;;;;4141841;28;20080;-77
2021/12/11 09:10:52;;;;;;;50.85;19.95;;;2.00;79.00;;;;;;4110609;28;20105;-77
2021/12/11 09:12:57;;;;;;;;;;;2.00;79.10;;;;;;4140326;28;20026;-77
2021/12/11 09:15:02;;;;;;;54.03;19.30;;;2.10;79.30;;;;;;4126621;28;19960;-77
2021/12/11 09:17:15;;;;;;;52.08;19.58;;;2.10;79.10;;;;;;4124204;28;20026;-77
2021/12/11 09:19:22;;;;;;;54.70;20.42;;;2.10;79.10;;;;;;4126037;28;20137;-77
2021/12/11 09:21:34;;;;;;;54.85;20.25;;;2.20;79.20;;;;;;4124713;28;20046;-77
2021/12/11 09:23:44;;;;;;;58.33;21.33;;;2.10;79.10;;;;;;4126166;28;20038;-77
2021/12/11 09:25:52;;;;;;;53.53;20.40;;;2.10;79.10;;;;;;4091783;28;20027;-77
2021/12/11 09:27:54;;;;;;;55.08;20.73;;;2.10;79.00;;;;;;4126267;28;20548;-77
2021/12/11 09:30:01;;;;;;;58.38;20.73;;;2.20;79.00;;;;;;4138319;28;20100;-77
2021/12/11 09:32:34;;;;;;;53.05;19.55;;;2.30;79.10;;;;;;4107987;28;20031;-77
2021/12/11 09:34:40;;;;;;;51.20;19.20;;;2.20;79.00;;;;;;4121639;28;20660;-77
2021/12/11 09:36:43;;;;;;;56.67;20.80;;;2.20;79.10;;;;;;4110843;28;20050;-77
2021/12/11 09:38:49;;;;;;;51.05;19.70;;;2.30;79.10;;;;;;4106607;28;20070;-77
2021/12/11 09:40:55;;;;;;;54.63;19.02;;;2.20;79.00;;;;;;4108128;28;20084;-77
2021/12/11 09:42:56;;;;;;;55.30;20.83;;;2.30;79.10;;;;;;4124859;28;20031;-77
2021/12/11 09:45:16;;;;;;;59.30;20.42;;;2.30;79.10;;;;;;4122741;28;20065;-77
2021/12/11 09:47:20;;;;;;;54.55;21.27;;;2.30;79.10;;;;;;4124377;28;20034;-77
2021/12/11 09:49:25;;;;;;;56.47;19.52;;;2.40;79.20;;;;;;4087129;28;20035;-77
2021/12/11 09:51:29;;;;;;;53.53;18.40;;;2.30;79.20;;;;;;4089076;28;20039;-79
2021/12/11 09:53:35;;;;;;;49.03;17.35;;;2.30;79.20;;;;;;4110334;28;20035;-78
2021/12/11 09:55:37;;;;;;;50.13;18.52;;;2.30;79.30;;;;;;4129312;28;20030;-77
2021/12/11 09:57:40;;;;;;;;;;;2.40;79.40;;;;;;4132641;28;20599;-77
2021/12/11 09:59:40;;;;;;;51.97;18.67;;;2.50;79.50;;;;;;4128046;28;20005;-77
2021/12/11 10:01:43;;;;;;;51.15;19.85;;;2.50;79.50;;;;;;4145661;28;20530;-78
2021/12/11 10:03:53;;;;;;;48.65;18.70;;;2.60;79.50;;;;;;4131149;28;20034;-77
2021/12/11 10:06:00;;;;;;;48.13;18.10;;;2.50;79.50;;;;;;4097934;28;20059;-77
2021/12/11 10:10:28;;;;;;;52.88;19.60;;;2.50;79.50;;;;;;4142134;28;20038;-78
2021/12/11 10:12:34;;;;;;;49.00;18.85;;;2.60;79.60;;;;;;4130332;28;20022;-78
2021/12/11 10:14:40;;;;;;;50.63;18.50;;;2.60;80.30;;;;;;4123589;28;20035;-78
2021/12/11 10:16:44;;;;;;;49.45;19.27;;;2.60;79.60;;;;;;4142091;28;20696;-77
2021/12/11 10:18:45;;;;;;;52.97;19.38;;;2.60;79.50;;;;;;4125712;28;20057;-77
2021/12/11 10:20:57;;;;;;;49.08;17.50;;;2.60;79.50;;;;;;4124267;28;20439;-77
2021/12/11 10:23:06;;;;;;;54.60;17.42;;;2.70;79.60;;;;;;4125613;28;20436;-77
2021/12/11 10:25:13;;;;;;;50.20;18.17;;;2.70;80.30;;;;;;4123559;28;20058;-77
2021/12/11 10:27:15;;;;;;;47.17;18.55;;;2.80;79.60;;;;;;4111123;28;20107;-78
2021/12/11 10:29:16;;;;;;;55.35;17.85;;;2.80;79.50;;;;;;4114507;28;20645;-77
2021/12/11 10:32:00;;;;;;;43.58;16.40;;;2.80;79.40;;;;;;4114101;28;20026;-77
2021/12/11 10:34:04;;;;;;;43.08;17.10;;;2.90;79.50;;;;;;4129157;28;20030;-77
2021/12/11 10:36:08;;;;;;;44.05;16.27;;;2.90;79.50;;;;;;4127295;28;20049;-78
2021/12/11 10:38:09;;;;;;;45.33;16.00;;;2.90;79.40;;;;;;4099494;28;20031;-77
2021/12/11 10:40:26;;;;;;;46.55;16.85;;;2.90;79.40;;;;;;4129857;28;20029;-77
2021/12/11 10:42:26;;;;;;;62.65;23.65;;;2.90;79.40;;;;;;4143327;28;20423;-77
2021/12/11 10:44:30;;;;;;;171.07;64.78;;;2.90;79.30;;;;;;4135045;28;20042;-77
2021/12/11 10:46:34;;;;;;;131.00;49.90;;;3.00;79.40;;;;;;4112465;28;20038;-78
2021/12/11 10:48:35;;;;;;;161.50;65.75;;;3.00;80.00;;;;;;4126581;28;20484;-78
2021/12/11 10:50:45;;;;;;;109.05;46.90;;;3.00;79.20;;;;;;4122274;28;20022;-78
2021/12/11 10:52:48;;;;;;;64.40;28.00;;;3.00;79.20;;;;;;4130840;28;20125;-78
2021/12/11 10:54:50;;;;;;;47.30;19.25;;;3.10;79.20;;;;;;4129580;28;20026;-78
2021/12/11 10:56:51;;;;;;;46.90;16.75;;;3.10;79.20;;;;;;4098464;28;20039;-78